Time;durP1;ratioP1;P1;durP2;ratioP2;P2;SDS_P1;SDS_P2;PMS_P1;PMS_P2;Temp;Humidity;BMP_temperature;BMP_pressure;BME280_temperature;BME280_humidity;BME280_pressure;Samples;Min_cycle;Max_cycle;Signal;HPM_P1;HPM_P2
2021/01/09 00:00:36;;;;;;;15.93;11.63;;;;;;;;;;2090497;28;20241;-59
2021/01/09 00:01:38;;;;;;;12.97;10.20;;;;;;;;;;2090715;28;20420;-63
2021/01/09 00:02:39;;;;;;;16.23;11.10;;;;;;;;;;2091167;28;20711;-61
2021/01/09 00:03:39;;;;;;;14.80;10.97;;;;;;;;;;2096457;28;20514;-57
2021/01/09 00:04:40;;;;;;;14.37;11.67;;;;;;;;;;2083325;28;20530;-65
2021/01/09 00:05:41;;;;;;;14.03;10.93;;;;;;;;;;2089327;28;20224;-58
2021/01/09 00:06:41;;;;;;;13.47;10.87;;;;;;;;;;2097426;28;20175;-59
2021/01/09 00:07:41;;;;;;;11.00;9.70;;;;;;;;;;2097420;28;20541;-59
2021/01/09 00:08:41;;;;;;;13.23;10.30;;;;;;;;;;2088898;28;20180;-63
2021/01/09 00:09:42;;;;;;;14.53;10.53;;;;;;;;;;2097415;28;20172;-62
2021/01/09 00:10:42;;;;;;;10.27;9.13;;;;;;;;;;2098575;28;20163;-58
2021/01/09 00:11:42;;;;;;;10.70;9.10;;;;;;;;;;2097601;28;20584;-60
2021/01/09 00:12:42;;;;;;;14.50;9.93;;;;;;;;;;2098128;28;20258;-61
2021/01/09 00:13:43;;;;;;;13.40;8.93;;;;;;;;;;2094296;28;20175;-59
2021/01/09 00:14:43;;;;;;;12.60;9.77;;;;;;;;;;2097945;28;20206;-61
2021/01/09 00:15:43;;;;;;;11.43;9.13;;;;;;;;;;2090797;28;20176;-57
2021/01/09 00:16:47;;;;;;;13.60;10.73;;;;;;;;;;2088860;28;20180;-57
2021/01/09 00:17:47;;;;;;;13.37;9.23;;;;;;;;;;2088891;28;20202;-63
2021/01/09 00:18:48;;;;;;;12.07;9.37;;;;;;;;;;2090649;28;20388;-59
2021/01/09 00:19:48;;;;;;;12.37;9.50;;;;;;;;;;2098581;28;20188;-58
2021/01/09 00:20:48;;;;;;;11.80;9.53;;;;;;;;;;2089149;28;20587;-61
2021/01/09 00:21:48;;;;;;;12.27;9.20;;;;;;;;;;2080275;28;20199;-64
2021/01/09 00:22:48;;;;;;;11.97;9.47;;;;;;;;;;2088117;28;20259;-62
2021/01/09 00:23:49;;;;;;;11.40;9.40;;;;;;;;;;2088913;28;20184;-62
2021/01/09 00:24:49;;;;;;;14.80;9.70;;;;;;;;;;2087586;28;20179;-62
2021/01/09 00:25:50;;;;;;;11.83;9.30;;;;;;;;;;2090244;28;20210;-57
2021/01/09 00:26:50;;;;;;;10.87;8.97;;;;;;;;;;2090127;28;20179;-64
2021/01/09 00:27:51;;;;;;;13.87;9.53;;;;;;;;;;2095076;28;20635;-61
2021/01/09 00:28:51;;;;;;;12.40;9.47;;;;;;;;;;2088265;28;20184;-62
2021/01/09 00:29:51;;;;;;;11.43;9.17;;;;;;;;;;2084713;28;20247;-57
2021/01/09 00:30:52;;;;;;;11.10;9.43;;;;;;;;;;2090950;28;20191;-55
2021/01/09 00:31:52;;;;;;;12.13;9.07;;;;;;;;;;2096668;28;20183;-57
2021/01/09 00:32:52;;;;;;;11.03;8.63;;;;;;;;;;2094968;28;20171;-57
2021/01/09 00:33:53;;;;;;;12.77;9.87;;;;;;;;;;2088301;28;20181;-56
2021/01/09 00:34:53;;;;;;;13.13;9.47;;;;;;;;;;2088796;28;20207;-59
2021/01/09 00:35:56;;;;;;;12.60;9.63;;;;;;;;;;2095584;28;20171;-61
2021/01/09 00:36:57;;;;;;;13.17;10.30;;;;;;;;;;2095493;28;20181;-62
2021/01/09 00:37:57;;;;;;;11.80;9.50;;;;;;;;;;2095374;28;20185;-59
2021/01/09 00:38:57;;;;;;;13.33;10.07;;;;;;;;;;2095757;28;20262;-62
2021/01/09 00:39:57;;;;;;;14.53;10.17;;;;;;;;;;2095100;28;20175;-59
2021/01/09 00:40:58;;;;;;;14.10;11.40;;;;;;;;;;2096154;28;20270;-62
2021/01/09 00:41:59;;;;;;;17.17;11.10;;;;;;;;;;2086833;28;20258;-59
2021/01/09 00:42:59;;;;;;;16.73;11.83;;;;;;;;;;2086710;28;20678;-58
2021/01/09 00:43:59;;;;;;;14.00;10.40;;;;;;;;;;2096591;28;20221;-60
2021/01/09 00:44:59;;;;;;;14.77;10.33;;;;;;;;;;2092500;28;20170;-58
2021/01/09 00:46:00;;;;;;;12.33;10.53;;;;;;;;;;2097084;28;20210;-58
2021/01/09 00:47:01;;;;;;;12.87;9.90;;;;;;;;;;2097601;28;20167;-56
2021/01/09 00:48:01;;;;;;;13.90;9.57;;;;;;;;;;2095133;28;21241;-58
2021/01/09 00:49:02;;;;;;;13.73;10.03;;;;;;;;;;2092359;28;20182;-62
2021/01/09 00:50:03;;;;;;;12.13;9.57;;;;;;;;;;2098135;28;20205;-63
2021/01/09 00:51:03;;;;;;;15.60;11.57;;;;;;;;;;2120282;22;20178;-55
2021/01/09 00:52:03;;;;;;;13.07;10.37;;;;;;;;;;2101918;28;20426;-57
2021/01/09 00:53:04;;;;;;;12.23;10.13;;;;;;;;;;2103767;28;20201;-57
2021/01/09 00:54:04;;;;;;;18.30;12.97;;;;;;;;;;2103937;28;20166;-57
2021/01/09 00:55:05;;;;;;;12.83;9.70;;;;;;;;;;2103366;28;20273;-56
2021/01/09 00:56:06;;;;;;;15.83;13.40;;;;;;;;;;2100585;28;20228;-57
2021/01/09 00:57:06;;;;;;;13.03;11.57;;;;;;;;;;2101815;28;20166;-58
2021/01/09 00:58:06;;;;;;;21.87;16.37;;;;;;;;;;2106731;28;20166;-55
2021/01/09 00:59:06;;;;;;;13.80;9.93;;;;;;;;;;2097406;28;20215;-57
2021/01/09 01:00:07;;;;;;;17.83;12.63;;;;;;;;;;2090097;28;20175;-58
2021/01/09 01:01:07;;;;;;;12.93;11.53;;;;;;;;;;2097749;28;20271;-55
2021/01/09 01:02:10;;;;;;;15.33;11.80;;;;;;;;;;2099027;28;20182;-57
2021/01/09 01:03:11;;;;;;;15.27;11.70;;;;;;;;;;2098439;28;20199;-57
2021/01/09 01:04:11;;;;;;;17.10;12.67;;;;;;;;;;2098607;28;20436;-59
2021/01/09 01:05:11;;;;;;;15.13;11.43;;;;;;;;;;2089863;28;20176;-57
2021/01/09 01:06:12;;;;;;;12.00;9.13;;;;;;;;;;2089044;28;20220;-58
2021/01/09 01:07:12;;;;;;;11.27;9.20;;;;;;;;;;2089140;28;20213;-55
2021/01/09 01:08:12;;;;;;;15.93;10.03;;;;;;;;;;2089582;28;20180;-56
2021/01/09 01:09:12;;;;;;;13.90;11.10;;;;;;;;;;2089632;28;20677;-58
2021/01/09 01:10:13;;;;;;;10.83;9.40;;;;;;;;;;2090586;28;20168;-54
2021/01/09 01:11:21;;;;;;;12.60;9.53;;;;;;;;;;2090088;28;20590;-57
2021/01/09 01:12:21;;;;;;;11.03;9.10;;;;;;;;;;2094893;28;20175;-56
2021/01/09 01:13:22;;;;;;;11.50;9.80;;;;;;;;;;2095928;28;20408;-58
2021/01/09 01:14:22;;;;;;;12.57;9.90;;;;;;;;;;2093081;28;20171;-57
2021/01/09 01:15:22;;;;;;;14.77;10.00;;;;;;;;;;2098694;28;20185;-58
2021/01/09 01:16:23;;;;;;;17.03;12.07;;;;;;;;;;2098137;28;20179;-56
2021/01/09 01:17:23;;;;;;;24.40;16.03;;;;;;;;;;2097270;28;20171;-55
2021/01/09 01:18:23;;;;;;;33.93;22.20;;;;;;;;;;2098624;28;20183;-54
2021/01/09 01:19:23;;;;;;;29.93;18.67;;;;;;;;;;2098626;28;20551;-56
2021/01/09 01:20:24;;;;;;;22.10;17.07;;;;;;;;;;2089520;28;20214;-53
2021/01/09 01:21:24;;;;;;;19.37;13.57;;;;;;;;;;2089463;28;20591;-58
2021/01/09 01:22:24;;;;;;;17.30;13.40;;;;;;;;;;2098250;28;20552;-56
2021/01/09 01:23:24;;;;;;;14.37;11.37;;;;;;;;;;2098362;28;20211;-55
2021/01/09 01:24:25;;;;;;;14.40;10.47;;;;;;;;;;2098058;28;20167;-57
2021/01/09 01:25:25;;;;;;;14.57;10.83;;;;;;;;;;2097952;28;20308;-57
2021/01/09 01:26:25;;;;;;;14.03;10.20;;;;;;;;;;2094783;28;20176;-57
2021/01/09 01:27:25;;;;;;;11.37;8.77;;;;;;;;;;2095837;28;20173;-57
2021/01/09 01:28:26;;;;;;;12.20;10.00;;;;;;;;;;2098438;28;20743;-56
2021/01/09 01:29:26;;;;;;;12.90;9.90;;;;;;;;;;2097996;28;20175;-55
2021/01/09 01:30:26;;;;;;;12.60;9.90;;;;;;;;;;2098338;28;20243;-58
2021/01/09 01:31:27;;;;;;;17.63;11.00;;;;;;;;;;2097692;28;20222;-57
2021/01/09 01:32:27;;;;;;;13.07;9.87;;;;;;;;;;2098428;28;20724;-57
2021/01/09 01:33:27;;;;;;;13.27;9.77;;;;;;;;;;2098138;28;20171;-55
2021/01/09 01:34:28;;;;;;;12.53;9.57;;;;;;;;;;2097987;28;20547;-58
2021/01/09 01:35:28;;;;;;;16.70;9.20;;;;;;;;;;2098256;28;20175;-55
2021/01/09 01:36:28;;;;;;;10.17;8.57;;;;;;;;;;2089509;28;20179;-57
2021/01/09 01:37:28;;;;;;;11.80;10.00;;;;;;;;;;2088834;28;20664;-54
2021/01/09 01:38:29;;;;;;;12.80;9.40;;;;;;;;;;2098320;28;20171;-57
2021/01/09 01:39:29;;;;;;;11.73;9.03;;;;;;;;;;2095996;28;20188;-57
2021/01/09 01:40:29;;;;;;;14.60;9.73;;;;;;;;;;2096128;28;20237;-55
2021/01/09 01:41:29;;;;;;;11.47;9.33;;;;;;;;;;2098308;28;20574;-58
2021/01/09 01:42:30;;;;;;;13.83;9.40;;;;;;;;;;2098120;28;20178;-58
2021/01/09 01:43:30;;;;;;;11.30;9.27;;;;;;;;;;2088420;28;20286;-55
2021/01/09 01:44:31;;;;;;;11.40;9.17;;;;;;;;;;2088214;28;20188;-56
2021/01/09 01:45:31;;;;;;;12.13;8.93;;;;;;;;;;2097922;28;20190;-56
2021/01/09 01:46:31;;;;;;;16.00;9.87;;;;;;;;;;2096930;28;20262;-57
2021/01/09 01:47:32;;;;;;;12.17;10.37;;;;;;;;;;2097767;28;20171;-59
2021/01/09 01:48:32;;;;;;;11.53;9.27;;;;;;;;;;2097173;28;20186;-57
2021/01/09 01:49:33;;;;;;;11.30;9.13;;;;;;;;;;2097479;28;20236;-58
2021/01/09 01:50:33;;;;;;;12.73;10.40;;;;;;;;;;2097438;28;20614;-55
2021/01/09 01:51:33;;;;;;;15.90;10.83;;;;;;;;;;2088316;28;20202;-58
2021/01/09 01:52:34;;;;;;;13.53;10.03;;;;;;;;;;2089436;28;20213;-58
2021/01/09 01:53:34;;;;;;;15.17;10.97;;;;;;;;;;2097357;28;20225;-57
2021/01/09 01:54:34;;;;;;;13.30;11.50;;;;;;;;;;2097138;28;20182;-58
2021/01/09 01:55:35;;;;;;;15.83;11.17;;;;;;;;;;2097172;28;20170;-57
2021/01/09 01:56:35;;;;;;;14.27;10.83;;;;;;;;;;2088074;28;20172;-56
2021/01/09 01:57:35;;;;;;;13.27;11.27;;;;;;;;;;2088583;28;20310;-55
2021/01/09 01:58:36;;;;;;;14.13;10.63;;;;;;;;;;2095050;28;20569;-55
2021/01/09 01:59:36;;;;;;;15.43;11.67;;;;;;;;;;2097487;28;20179;-56
2021/01/09 02:00:36;;;;;;;14.77;11.57;;;;;;;;;;2088870;28;20175;-56
2021/01/09 02:01:38;;;;;;;16.37;10.77;;;;;;;;;;2087748;28;20187;-54
2021/01/09 02:02:38;;;;;;;17.50;11.43;;;;;;;;;;2097939;28;20411;-57
2021/01/09 02:03:38;;;;;;;14.63;12.40;;;;;;;;;;2089387;28;20199;-56
2021/01/09 02:04:39;;;;;;;17.57;11.73;;;;;;;;;;2089092;28;20176;-58
2021/01/09 02:05:41;;;;;;;16.33;12.67;;;;;;;;;;2091302;28;20168;-58
2021/01/09 02:06:42;;;;;;;19.30;11.37;;;;;;;;;;2091164;28;20170;-59
2021/01/09 02:07:43;;;;;;;14.53;11.10;;;;;;;;;;2100291;28;20494;-57
2021/01/09 02:09:01;;;;;;;15.90;12.47;;;;;;;;;;2100491;28;20170;-59
2021/01/09 02:10:03;;;;;;;16.30;12.10;;;;;;;;;;2090902;28;20194;-55
2021/01/09 02:11:06;;;;;;;15.07;11.77;;;;;;;;;;2089716;28;20167;-56
2021/01/09 02:12:10;;;;;;;14.50;12.53;;;;;;;;;;2099371;28;20167;-57
2021/01/09 02:13:12;;;;;;;15.80;13.23;;;;;;;;;;2098333;28;20419;-58
2021/01/09 02:14:25;;;;;;;16.07;12.47;;;;;;;;;;2098392;28;20486;-56
2021/01/09 02:15:25;;;;;;;18.60;12.77;;;;;;;;;;2095610;28;20177;-57
2021/01/09 02:16:26;;;;;;;20.00;13.03;;;;;;;;;;2097540;28;20186;-57
2021/01/09 02:17:26;;;;;;;15.60;12.13;;;;;;;;;;2095401;28;20209;-58
2021/01/09 02:18:27;;;;;;;16.27;12.47;;;;;;;;;;2098082;28;20224;-58
2021/01/09 02:19:28;;;;;;;17.67;13.47;;;;;;;;;;2090159;28;20249;-57
2021/01/09 02:20:29;;;;;;;17.57;12.23;;;;;;;;;;2082660;28;20256;-57
2021/01/09 02:21:40;;;;;;;15.13;12.90;;;;;;;;;;2088408;28;20443;-58
2021/01/09 02:22:43;;;;;;;17.33;12.10;;;;;;;;;;2098653;28;20175;-59
2021/01/09 02:23:44;;;;;;;15.37;12.17;;;;;;;;;;2099580;28;20203;-58
2021/01/09 02:24:45;;;;;;;17.73;13.10;;;;;;;;;;2098740;28;20447;-56
2021/01/09 02:25:45;;;;;;;14.93;11.97;;;;;;;;;;2098057;28;20250;-55
2021/01/09 02:26:48;;;;;;;17.90;14.20;;;;;;;;;;2098146;28;20172;-57
2021/01/09 02:27:48;;;;;;;19.67;14.23;;;;;;;;;;2097406;28;20654;-58
2021/01/09 02:28:49;;;;;;;19.37;12.80;;;;;;;;;;2094745;28;20503;-58
2021/01/09 02:29:56;;;;;;;18.27;12.93;;;;;;;;;;2094908;28;20172;-57
2021/01/09 02:30:59;;;;;;;16.77;12.73;;;;;;;;;;2086535;28;20676;-54
2021/01/09 02:32:03;;;;;;;16.93;12.97;;;;;;;;;;2088770;28;20164;-58
2021/01/09 02:33:09;;;;;;;17.63;13.10;;;;;;;;;;2092992;28;20266;-51
2021/01/09 02:34:09;;;;;;;15.50;13.30;;;;;;;;;;2088806;28;20664;-56
2021/01/09 02:35:11;;;;;;;17.40;12.90;;;;;;;;;;2089086;28;20179;-56
2021/01/09 02:36:11;;;;;;;16.13;13.20;;;;;;;;;;2096015;28;20175;-58
2021/01/09 02:37:12;;;;;;;18.23;13.33;;;;;;;;;;2093524;28;20408;-58
2021/01/09 02:38:12;;;;;;;17.00;13.33;;;;;;;;;;2096500;28;20268;-52
2021/01/09 02:39:13;;;;;;;16.67;13.00;;;;;;;;;;2089895;28;20176;-58
2021/01/09 02:40:14;;;;;;;19.40;13.43;;;;;;;;;;2090181;28;20239;-58
2021/01/09 02:41:15;;;;;;;16.63;12.10;;;;;;;;;;2096806;28;20218;-56
2021/01/09 02:42:15;;;;;;;16.33;12.83;;;;;;;;;;2098590;28;20639;-56
2021/01/09 02:43:16;;;;;;;17.37;13.17;;;;;;;;;;2099625;28;20187;-57
2021/01/09 02:44:16;;;;;;;17.60;13.30;;;;;;;;;;2098976;28;20202;-57
2021/01/09 02:45:16;;;;;;;16.07;13.23;;;;;;;;;;2098803;28;20285;-58
2021/01/09 02:46:16;;;;;;;15.20;12.07;;;;;;;;;;2098650;28;20813;-59
2021/01/09 02:47:17;;;;;;;17.67;12.83;;;;;;;;;;2090345;28;20624;-54
2021/01/09 02:48:17;;;;;;;16.60;13.70;;;;;;;;;;2089428;28;20542;-57
2021/01/09 02:49:18;;;;;;;17.17;13.07;;;;;;;;;;2090944;28;20556;-55
2021/01/09 02:50:18;;;;;;;16.67;12.93;;;;;;;;;;2090433;28;20243;-57
2021/01/09 02:51:18;;;;;;;19.53;13.73;;;;;;;;;;2099303;28;20205;-57
2021/01/09 02:52:18;;;;;;;16.83;13.77;;;;;;;;;;2089893;28;20207;-55
2021/01/09 02:53:18;;;;;;;17.60;12.90;;;;;;;;;;2089313;28;20171;-58
2021/01/09 02:54:19;;;;;;;15.97;13.47;;;;;;;;;;2098411;28;20240;-58
2021/01/09 02:55:19;;;;;;;17.50;14.50;;;;;;;;;;2098668;28;20264;-59
2021/01/09 02:56:19;;;;;;;18.07;14.10;;;;;;;;;;2098921;28;20244;-55
2021/01/09 02:57:19;;;;;;;16.13;13.57;;;;;;;;;;2099794;28;20186;-58
2021/01/09 02:58:20;;;;;;;18.47;13.43;;;;;;;;;;2101115;28;20181;-59
2021/01/09 02:59:20;;;;;;;15.93;13.13;;;;;;;;;;2100677;28;20183;-59
2021/01/09 03:00:20;;;;;;;19.67;14.23;;;;;;;;;;2098227;28;20239;-56
2021/01/09 03:01:24;;;;;;;21.23;14.60;;;;;;;;;;2099566;28;20293;-56
2021/01/09 03:02:25;;;;;;;18.60;13.67;;;;;;;;;;2082340;28;20274;-57
2021/01/09 03:03:25;;;;;;;16.73;14.67;;;;;;;;;;2088123;28;20456;-56
2021/01/09 03:04:25;;;;;;;18.73;14.10;;;;;;;;;;2096633;28;20179;-56
2021/01/09 03:05:25;;;;;;;18.43;14.33;;;;;;;;;;2098821;28;20655;-57
2021/01/09 03:06:26;;;;;;;19.50;14.73;;;;;;;;;;2099197;28;20619;-57
2021/01/09 03:07:26;;;;;;;20.87;15.50;;;;;;;;;;2089453;28;20160;-54
2021/01/09 03:08:26;;;;;;;21.17;15.57;;;;;;;;;;2090058;28;20180;-56
2021/01/09 03:09:27;;;;;;;19.57;14.70;;;;;;;;;;2098628;28;20167;-57
2021/01/09 03:10:27;;;;;;;21.67;15.30;;;;;;;;;;2098830;28;20550;-58
2021/01/09 03:11:28;;;;;;;18.10;15.07;;;;;;;;;;2095874;28;20207;-57
2021/01/09 03:12:28;;;;;;;19.50;15.63;;;;;;;;;;2091208;28;20171;-57
2021/01/09 03:13:29;;;;;;;22.70;16.20;;;;;;;;;;2098315;28;20427;-55
2021/01/09 03:14:29;;;;;;;20.20;13.90;;;;;;;;;;2099283;28;20550;-59
2021/01/09 03:15:29;;;;;;;20.70;13.73;;;;;;;;;;2097176;28;20189;-58
2021/01/09 03:16:29;;;;;;;17.87;14.10;;;;;;;;;;2098288;28;20179;-57
2021/01/09 03:17:29;;;;;;;18.23;14.20;;;;;;;;;;2099060;28;20649;-56
2021/01/09 03:18:30;;;;;;;20.53;14.60;;;;;;;;;;2098747;28;20182;-57
2021/01/09 03:19:30;;;;;;;17.33;14.50;;;;;;;;;;2097446;28;20542;-54
2021/01/09 03:20:30;;;;;;;18.73;14.03;;;;;;;;;;2099851;28;20640;-55
2021/01/09 03:21:30;;;;;;;20.60;15.57;;;;;;;;;;2098441;28;20715;-55
2021/01/09 03:22:31;;;;;;;17.87;13.77;;;;;;;;;;2099790;28;20238;-56
2021/01/09 03:23:31;;;;;;;19.67;15.07;;;;;;;;;;2098167;28;20206;-55
2021/01/09 03:24:31;;;;;;;19.60;13.57;;;;;;;;;;2099929;28;20224;-55
2021/01/09 03:25:31;;;;;;;16.70;13.17;;;;;;;;;;2088898;28;20182;-56
2021/01/09 03:26:32;;;;;;;15.97;14.07;;;;;;;;;;2090801;28;20542;-58
2021/01/09 03:27:32;;;;;;;16.03;12.83;;;;;;;;;;2096831;28;20310;-59
2021/01/09 03:28:32;;;;;;;16.97;13.90;;;;;;;;;;2084571;28;20214;-57
2021/01/09 03:29:32;;;;;;;15.23;13.00;;;;;;;;;;2086438;28;20807;-54
2021/01/09 03:30:33;;;;;;;16.10;12.37;;;;;;;;;;2095826;28;20183;-55
2021/01/09 03:31:33;;;;;;;16.70;12.37;;;;;;;;;;2095997;28;20199;-55
2021/01/09 03:32:33;;;;;;;19.53;14.07;;;;;;;;;;2097656;28;20238;-57
2021/01/09 03:33:33;;;;;;;16.33;13.33;;;;;;;;;;2095309;28;20175;-54
2021/01/09 03:34:34;;;;;;;18.50;14.30;;;;;;;;;;2098354;28;20182;-57
2021/01/09 03:35:34;;;;;;;20.47;13.43;;;;;;;;;;2098428;28;20206;-56
2021/01/09 03:36:34;;;;;;;17.27;13.07;;;;;;;;;;2089911;28;20194;-56
2021/01/09 03:37:34;;;;;;;19.17;13.80;;;;;;;;;;2081037;28;20180;-63
2021/01/09 03:38:35;;;;;;;18.83;14.50;;;;;;;;;;2089976;28;20179;-56
2021/01/09 03:39:35;;;;;;;20.73;14.70;;;;;;;;;;2089336;28;20167;-56
2021/01/09 03:40:35;;;;;;;17.53;14.43;;;;;;;;;;2089322;28;20175;-56
2021/01/09 03:41:35;;;;;;;19.83;14.23;;;;;;;;;;2089047;28;20210;-54
2021/01/09 03:42:36;;;;;;;20.40;14.50;;;;;;;;;;2098541;28;20175;-58
2021/01/09 03:43:36;;;;;;;18.30;14.10;;;;;;;;;;2090178;28;20199;-55
2021/01/09 03:44:36;;;;;;;19.47;14.53;;;;;;;;;;2090135;28;20202;-57
2021/01/09 03:45:36;;;;;;;19.40;15.63;;;;;;;;;;2100910;28;20171;-58
2021/01/09 03:46:37;;;;;;;20.70;15.43;;;;;;;;;;2099942;28;20175;-57
2021/01/09 03:47:37;;;;;;;20.63;15.43;;;;;;;;;;2096516;28;20221;-57
2021/01/09 03:48:37;;;;;;;18.97;15.63;;;;;;;;;;2089292;28;20208;-58
2021/01/09 03:49:37;;;;;;;19.33;14.37;;;;;;;;;;2093289;28;20186;-58
2021/01/09 03:50:37;;;;;;;21.97;14.63;;;;;;;;;;2092978;28;20652;-59
2021/01/09 03:51:38;;;;;;;20.83;15.10;;;;;;;;;;2092093;28;20199;-57
2021/01/09 03:52:38;;;;;;;18.07;14.23;;;;;;;;;;2101610;28;20726;-56
2021/01/09 03:53:38;;;;;;;19.30;14.63;;;;;;;;;;2099528;28;20187;-54
2021/01/09 03:54:38;;;;;;;21.23;15.83;;;;;;;;;;2095010;28;20184;-55
2021/01/09 03:55:39;;;;;;;19.83;16.13;;;;;;;;;;2082728;28;20212;-57
2021/01/09 03:56:39;;;;;;;21.30;16.10;;;;;;;;;;2090471;28;20172;-58
2021/01/09 03:57:39;;;;;;;19.73;15.53;;;;;;;;;;2090197;28;20175;-55
2021/01/09 03:58:39;;;;;;;21.67;15.13;;;;;;;;;;2100036;28;20179;-58
2021/01/09 03:59:39;;;;;;;22.07;15.87;;;;;;;;;;2093530;28;20277;-57
2021/01/09 04:00:40;;;;;;;23.13;16.10;;;;;;;;;;2096919;28;20258;-56
2021/01/09 04:01:40;;;;;;;20.43;15.03;;;;;;;;;;2098411;28;20199;-57
2021/01/09 04:02:40;;;;;;;23.73;16.60;;;;;;;;;;2098982;28;20175;-57
2021/01/09 04:03:40;;;;;;;22.73;16.63;;;;;;;;;;2089665;28;20300;-57
2021/01/09 04:04:41;;;;;;;24.23;17.60;;;;;;;;;;2081195;28;20176;-57
2021/01/09 04:05:41;;;;;;;24.57;17.73;;;;;;;;;;2084743;28;20171;-60
2021/01/09 04:06:42;;;;;;;20.53;15.63;;;;;;;;;;2098602;28;20167;-58
2021/01/09 04:07:42;;;;;;;24.57;17.63;;;;;;;;;;2088885;28;20187;-56
2021/01/09 04:08:42;;;;;;;24.43;17.27;;;;;;;;;;2090220;28;20206;-58
2021/01/09 04:09:42;;;;;;;21.40;16.83;;;;;;;;;;2092899;28;20171;-57
2021/01/09 04:10:42;;;;;;;26.27;17.07;;;;;;;;;;2095628;28;20179;-59
2021/01/09 04:11:43;;;;;;;24.17;17.57;;;;;;;;;;2099619;28;20206;-61
2021/01/09 04:12:43;;;;;;;25.93;16.80;;;;;;;;;;2099879;28;20175;-57
2021/01/09 04:13:43;;;;;;;24.73;16.47;;;;;;;;;;2098544;28;20190;-58
2021/01/09 04:14:43;;;;;;;20.33;15.97;;;;;;;;;;2100153;28;20194;-57
2021/01/09 04:15:44;;;;;;;23.07;16.13;;;;;;;;;;2099043;28;20186;-58
2021/01/09 04:16:44;;;;;;;24.60;17.30;;;;;;;;;;2090643;28;20171;-57
2021/01/09 04:17:44;;;;;;;25.87;16.77;;;;;;;;;;2089436;28;20691;-56
2021/01/09 04:18:44;;;;;;;24.17;17.10;;;;;;;;;;2099562;28;20172;-58
2021/01/09 04:19:45;;;;;;;25.00;17.03;;;;;;;;;;2090009;28;20580;-57
2021/01/09 04:20:45;;;;;;;27.53;16.97;;;;;;;;;;2081463;28;20180;-55
2021/01/09 04:21:46;;;;;;;21.17;16.13;;;;;;;;;;2089589;28;20191;-55
2021/01/09 04:22:46;;;;;;;25.73;17.57;;;;;;;;;;2089327;28;20179;-57
2021/01/09 04:23:46;;;;;;;26.67;16.80;;;;;;;;;;2089530;28;20294;-56
2021/01/09 04:24:46;;;;;;;25.47;18.00;;;;;;;;;;2098361;28;20236;-56
2021/01/09 04:25:47;;;;;;;20.90;16.57;;;;;;;;;;2095828;28;20236;-57
2021/01/09 04:26:54;;;;;;;24.27;16.90;;;;;;;;;;2098435;28;20163;-56
2021/01/09 04:27:54;;;;;;;21.60;15.70;;;;;;;;;;2098457;28;20714;-59
2021/01/09 04:28:54;;;;;;;23.63;16.53;;;;;;;;;;2097504;28;20403;-57
2021/01/09 04:29:55;;;;;;;25.80;17.00;;;;;;;;;;2091668;28;20175;-56
2021/01/09 04:30:55;;;;;;;23.03;16.50;;;;;;;;;;2093971;28;20206;-57
2021/01/09 04:31:56;;;;;;;21.13;16.23;;;;;;;;;;2092491;28;20263;-57
2021/01/09 04:32:56;;;;;;;25.90;17.50;;;;;;;;;;2089572;28;20234;-58
2021/01/09 04:33:56;;;;;;;24.00;17.07;;;;;;;;;;2089098;28;20644;-56
2021/01/09 04:34:57;;;;;;;23.90;16.63;;;;;;;;;;2096173;28;20236;-56
2021/01/09 04:35:57;;;;;;;23.47;17.23;;;;;;;;;;2095248;28;20175;-57
2021/01/09 04:36:57;;;;;;;25.60;16.33;;;;;;;;;;2097952;28;20189;-55
2021/01/09 04:37:57;;;;;;;22.23;17.03;;;;;;;;;;2098203;28;20171;-56
2021/01/09 04:38:58;;;;;;;21.30;15.27;;;;;;;;;;2091009;28;20270;-62
2021/01/09 04:39:59;;;;;;;19.97;14.87;;;;;;;;;;2091041;28;20262;-56
2021/01/09 04:41:00;;;;;;;23.43;17.10;;;;;;;;;;2099102;28;20668;-56
2021/01/09 04:42:00;;;;;;;21.53;16.90;;;;;;;;;;2097845;28;20184;-57
2021/01/09 04:43:00;;;;;;;25.33;16.17;;;;;;;;;;2098517;28;20167;-56
2021/01/09 04:44:01;;;;;;;21.23;15.47;;;;;;;;;;2090551;28;20204;-59
2021/01/09 04:45:02;;;;;;;23.20;16.57;;;;;;;;;;2091009;28;20179;-58
2021/01/09 04:46:03;;;;;;;21.27;15.17;;;;;;;;;;2098900;28;20167;-58
2021/01/09 04:47:03;;;;;;;21.13;16.00;;;;;;;;;;2098471;28;20593;-59
2021/01/09 04:48:05;;;;;;;21.40;16.27;;;;;;;;;;2099762;28;20201;-54
2021/01/09 04:49:05;;;;;;;24.67;16.77;;;;;;;;;;2100553;28;20232;-60
2021/01/09 04:50:06;;;;;;;24.30;15.50;;;;;;;;;;2089891;28;20463;-58
2021/01/09 04:51:06;;;;;;;20.70;16.23;;;;;;;;;;2089389;28;20651;-58
2021/01/09 04:52:07;;;;;;;23.97;17.67;;;;;;;;;;2097714;28;20228;-57
2021/01/09 04:53:07;;;;;;;26.33;17.90;;;;;;;;;;2089326;28;20680;-55
2021/01/09 04:54:09;;;;;;;23.87;16.43;;;;;;;;;;2088413;28;20668;-57
2021/01/09 04:55:10;;;;;;;23.70;17.33;;;;;;;;;;2097469;28;20574;-55
2021/01/09 04:56:11;;;;;;;27.53;19.13;;;;;;;;;;2094175;28;20258;-57
2021/01/09 04:57:11;;;;;;;26.97;18.30;;;;;;;;;;2088684;28;20262;-57
2021/01/09 04:58:12;;;;;;;29.10;20.27;;;;;;;;;;2088911;28;20170;-64
2021/01/09 04:59:12;;;;;;;28.27;19.07;;;;;;;;;;2095371;28;20186;-55
2021/01/09 05:00:13;;;;;;;29.33;20.07;;;;;;;;;;2094221;28;20182;-56
2021/01/09 05:01:13;;;;;;;28.30;19.30;;;;;;;;;;2094777;28;20256;-54
2021/01/09 05:02:15;;;;;;;23.60;19.40;;;;;;;;;;2083840;28;20213;-54
2021/01/09 05:03:15;;;;;;;26.57;19.53;;;;;;;;;;2082295;28;20251;-54
2021/01/09 05:04:17;;;;;;;29.53;19.23;;;;;;;;;;2094794;28;20416;-58
2021/01/09 05:05:17;;;;;;;26.97;19.87;;;;;;;;;;2097753;28;20207;-58
2021/01/09 05:06:19;;;;;;;29.13;20.53;;;;;;;;;;2092345;28;20412;-58
2021/01/09 05:07:19;;;;;;;29.30;19.97;;;;;;;;;;2094216;28;20258;-58
2021/01/09 05:08:20;;;;;;;28.20;19.47;;;;;;;;;;2098487;28;20470;-59
2021/01/09 05:09:20;;;;;;;27.87;20.17;;;;;;;;;;2095495;28;20174;-56
2021/01/09 05:10:20;;;;;;;28.73;20.70;;;;;;;;;;2086067;28;20199;-59
2021/01/09 05:11:20;;;;;;;28.23;20.17;;;;;;;;;;2092593;28;20262;-53
2021/01/09 05:12:21;;;;;;;30.57;21.03;;;;;;;;;;2103889;28;20221;-59
2021/01/09 05:13:22;;;;;;;30.57;20.27;;;;;;;;;;2093289;28;20178;-57
2021/01/09 05:14:23;;;;;;;30.07;20.50;;;;;;;;;;2091871;28;20216;-64
2021/01/09 05:15:31;;;;;;;31.70;21.07;;;;;;;;;;2097266;28;20411;-56
2021/01/09 05:16:32;;;;;;;31.23;19.67;;;;;;;;;;2097073;28;20195;-56
2021/01/09 05:17:34;;;;;;;30.30;19.47;;;;;;;;;;2096893;28;20423;-55
2021/01/09 05:18:34;;;;;;;27.37;18.50;;;;;;;;;;2096799;28;20175;-54
2021/01/09 05:19:34;;;;;;;25.33;17.70;;;;;;;;;;2097555;28;20757;-56
2021/01/09 05:20:35;;;;;;;23.77;18.00;;;;;;;;;;2096333;28;20595;-57
2021/01/09 05:21:36;;;;;;;25.77;19.13;;;;;;;;;;2097754;28;20248;-57
2021/01/09 05:22:37;;;;;;;27.17;18.90;;;;;;;;;;2098429;28;20179;-57
2021/01/09 05:23:51;;;;;;;30.43;19.73;;;;;;;;;;2097663;28;20455;-54
2021/01/09 05:24:52;;;;;;;28.27;18.60;;;;;;;;;;2098021;28;20177;-56
2021/01/09 05:25:53;;;;;;;32.30;21.37;;;;;;;;;;2097523;28;20430;-58
2021/01/09 05:26:54;;;;;;;29.00;18.40;;;;;;;;;;2098172;28;20561;-59
2021/01/09 05:27:55;;;;;;;24.87;17.50;;;;;;;;;;2095013;28;20530;-58
2021/01/09 05:28:56;;;;;;;33.13;19.10;;;;;;;;;;2099608;28;20167;-61
2021/01/09 05:29:56;;;;;;;26.60;18.03;;;;;;;;;;2098164;28;20174;-58
2021/01/09 05:30:57;;;;;;;26.03;17.40;;;;;;;;;;2098347;28;20431;-57
2021/01/09 05:31:57;;;;;;;24.83;17.47;;;;;;;;;;2091997;28;20180;-58
2021/01/09 05:32:59;;;;;;;23.27;17.10;;;;;;;;;;2097919;28;20183;-57
2021/01/09 05:33:59;;;;;;;25.87;18.43;;;;;;;;;;2092856;28;20182;-56
2021/01/09 05:34:59;;;;;;;27.37;18.63;;;;;;;;;;2097621;28;20407;-57
2021/01/09 05:36:00;;;;;;;25.60;17.53;;;;;;;;;;2091847;28;20584;-59
2021/01/09 05:37:12;;;;;;;26.00;17.60;;;;;;;;;;2088663;28;20193;-59
2021/01/09 05:38:12;;;;;;;27.00;17.47;;;;;;;;;;2087705;28;20527;-57
2021/01/09 05:39:13;;;;;;;25.43;16.77;;;;;;;;;;2098095;28;20572;-58
2021/01/09 05:40:13;;;;;;;25.33;16.93;;;;;;;;;;2096276;28;20182;-56
2021/01/09 05:41:15;;;;;;;24.83;17.20;;;;;;;;;;2098252;28;20809;-58
2021/01/09 05:42:15;;;;;;;26.83;17.03;;;;;;;;;;2088339;28;20172;-59
2021/01/09 05:43:16;;;;;;;29.43;17.73;;;;;;;;;;2089221;28;20420;-55
2021/01/09 05:44:16;;;;;;;27.53;18.63;;;;;;;;;;2096795;28;20224;-58
2021/01/09 05:45:16;;;;;;;28.17;18.20;;;;;;;;;;2097806;28;20228;-58
2021/01/09 05:46:18;;;;;;;26.07;18.07;;;;;;;;;;2097310;28;21984;-56
2021/01/09 05:47:20;;;;;;;30.73;19.53;;;;;;;;;;2088541;28;20179;-57
2021/01/09 05:48:20;;;;;;;29.03;18.97;;;;;;;;;;2080577;28;20440;-57
2021/01/09 05:49:27;;;;;;;31.17;17.97;;;;;;;;;;2080917;28;20921;-59
2021/01/09 05:50:28;;;;;;;28.17;17.67;;;;;;;;;;2095730;28;20175;-56
2021/01/09 05:51:29;;;;;;;29.43;18.67;;;;;;;;;;2080038;28;20449;-56
2021/01/09 05:52:33;;;;;;;30.00;18.37;;;;;;;;;;2080417;28;20804;-58
2021/01/09 05:53:36;;;;;;;25.87;17.90;;;;;;;;;;2094182;28;20441;-57
2021/01/09 05:54:37;;;;;;;24.27;16.63;;;;;;;;;;2089790;28;20405;-53